sensor_id;sensor_type;location;lat;lon;timestamp;P1;durP1;ratioP1;P2;durP2;ratioP2
22160;SDS011;49035;48.812;11.762;2022-10-31T00:01:15;19.50;;;14.98;;
22160;SDS011;49035;48.812;11.762;2022-10-31T00:03:42;21.83;;;14.38;;
22160;SDS011;49035;48.812;11.762;2022-10-31T00:06:08;22.70;;;14.33;;
22160;SDS011;49035;48.812;11.762;2022-10-31T00:08:34;17.50;;;11.47;;
22160;SDS011;49035;48.812;11.762;2022-10-31T00:11:00;19.80;;;13.10;;
22160;SDS011;49035;48.812;11.762;2022-10-31T00:13:25;15.70;;;11.80;;
22160;SDS011;49035;48.812;11.762;2022-10-31T00:15:51;18.90;;;13.65;;
22160;SDS011;49035;48.812;11.762;2022-10-31T00:18:16;19.97;;;12.87;;
22160;SDS011;49035;48.812;11.762;2022-10-31T00:20:42;16.50;;;13.30;;
22160;SDS011;49035;48.812;11.762;2022-10-31T00:23:08;18.33;;;13.35;;
22160;SDS011;49035;48.812;11.762;2022-10-31T00:25:36;15.65;;;12.73;;
22160;SDS011;49035;48.812;11.762;2022-10-31T00:28:04;15.90;;;11.97;;
22160;SDS011;49035;48.812;11.762;2022-10-31T00:30:31;15.25;;;11.85;;
22160;SDS011;49035;48.812;11.762;2022-10-31T00:32:57;14.20;;;10.43;;
22160;SDS011;49035;48.812;11.762;2022-10-31T00:35:23;15.10;;;11.02;;
22160;SDS011;49035;48.812;11.762;2022-10-31T00:37:49;21.90;;;14.02;;
22160;SDS011;49035;48.812;11.762;2022-10-31T00:40:14;15.23;;;11.57;;
22160;SDS011;49035;48.812;11.762;2022-10-31T00:42:40;17.55;;;12.05;;
22160;SDS011;49035;48.812;11.762;2022-10-31T00:45:07;22.00;;;13.00;;
22160;SDS011;49035;48.812;11.762;2022-10-31T00:47:34;17.67;;;13.33;;
22160;SDS011;49035;48.812;11.762;2022-10-31T00:49:59;41.97;;;15.37;;
22160;SDS011;49035;48.812;11.762;2022-10-31T00:52:25;30.53;;;16.03;;
22160;SDS011;49035;48.812;11.762;2022-10-31T00:54:50;17.90;;;13.43;;
22160;SDS011;49035;48.812;11.762;2022-10-31T00:57:16;18.43;;;12.70;;
22160;SDS011;49035;48.812;11.762;2022-10-31T00:59:42;16.13;;;12.10;;
22160;SDS011;49035;48.812;11.762;2022-10-31T01:02:07;15.25;;;11.40;;
22160;SDS011;49035;48.812;11.762;2022-10-31T01:04:33;13.15;;;10.68;;
22160;SDS011;49035;48.812;11.762;2022-10-31T01:06:58;14.23;;;10.67;;
22160;SDS011;49035;48.812;11.762;2022-10-31T01:09:24;12.50;;;9.77;;
22160;SDS011;49035;48.812;11.762;2022-10-31T01:11:49;16.27;;;10.68;;
22160;SDS011;49035;48.812;11.762;2022-10-31T01:14:15;13.77;;;10.60;;
22160;SDS011;49035;48.812;11.762;2022-10-31T01:16:40;13.05;;;10.38;;
22160;SDS011;49035;48.812;11.762;2022-10-31T01:19:06;12.70;;;9.90;;
22160;SDS011;49035;48.812;11.762;2022-10-31T01:21:32;13.05;;;9.95;;
22160;SDS011;49035;48.812;11.762;2022-10-31T01:23:57;11.23;;;9.50;;
22160;SDS011;49035;48.812;11.762;2022-10-31T01:26:24;13.00;;;9.93;;
22160;SDS011;49035;48.812;11.762;2022-10-31T01:28:52;14.03;;;10.77;;
22160;SDS011;49035;48.812;11.762;2022-10-31T01:31:20;13.55;;;10.18;;
22160;SDS011;49035;48.812;11.762;2022-10-31T01:33:48;12.73;;;9.77;;
22160;SDS011;49035;48.812;11.762;2022-10-31T01:36:18;15.60;;;10.82;;
22160;SDS011;49035;48.812;11.762;2022-10-31T01:38:46;19.38;;;12.45;;
22160;SDS011;49035;48.812;11.762;2022-10-31T01:41:13;14.55;;;11.45;;
22160;SDS011;49035;48.812;11.762;2022-10-31T01:46:18;14.82;;;10.13;;
22160;SDS011;49035;48.812;11.762;2022-10-31T01:48:58;14.38;;;11.65;;
22160;SDS011;49035;48.812;11.762;2022-10-31T01:51:28;12.03;;;10.53;;
22160;SDS011;49035;48.812;11.762;2022-10-31T01:53:59;25.52;;;13.05;;
22160;SDS011;49035;48.812;11.762;2022-10-31T01:56:27;12.70;;;9.93;;
22160;SDS011;49035;48.812;11.762;2022-10-31T01:58:53;13.05;;;10.40;;
22160;SDS011;49035;48.812;11.762;2022-10-31T02:01:21;19.15;;;10.90;;
22160;SDS011;49035;48.812;11.762;2022-10-31T02:03:47;26.23;;;15.25;;
22160;SDS011;49035;48.812;11.762;2022-10-31T02:06:19;20.17;;;14.47;;
22160;SDS011;49035;48.812;11.762;2022-10-31T02:09:05;16.10;;;11.37;;
22160;SDS011;49035;48.812;11.762;2022-10-31T02:11:31;14.60;;;11.70;;
22160;SDS011;49035;48.812;11.762;2022-10-31T02:13:59;17.20;;;12.60;;
22160;SDS011;49035;48.812;11.762;2022-10-31T02:16:26;15.05;;;12.07;;
22160;SDS011;49035;48.812;11.762;2022-10-31T02:18:51;18.47;;;12.53;;
22160;SDS011;49035;48.812;11.762;2022-10-31T02:24:20;16.45;;;12.02;;
22160;SDS011;49035;48.812;11.762;2022-10-31T02:27:17;15.10;;;11.97;;
22160;SDS011;49035;48.812;11.762;2022-10-31T02:29:51;14.55;;;11.05;;
22160;SDS011;49035;48.812;11.762;2022-10-31T02:35:13;16.73;;;11.57;;
22160;SDS011;49035;48.812;11.762;2022-10-31T02:40:15;14.52;;;11.18;;
22160;SDS011;49035;48.812;11.762;2022-10-31T02:45:31;14.57;;;11.23;;
22160;SDS011;49035;48.812;11.762;2022-10-31T02:48:10;14.95;;;11.07;;
22160;SDS011;49035;48.812;11.762;2022-10-31T02:50:40;13.85;;;11.00;;
22160;SDS011;49035;48.812;11.762;2022-10-31T02:53:09;14.00;;;10.38;;
22160;SDS011;49035;48.812;11.762;2022-10-31T02:58:04;13.18;;;10.40;;
22160;SDS011;49035;48.812;11.762;2022-10-31T03:03:27;13.82;;;10.93;;
22160;SDS011;49035;48.812;11.762;2022-10-31T03:06:09;22.50;;;13.00;;
22160;SDS011;49035;48.812;11.762;2022-10-31T03:08:52;20.95;;;13.00;;
22160;SDS011;49035;48.812;11.762;2022-10-31T03:11:57;15.80;;;11.90;;
22160;SDS011;49035;48.812;11.762;2022-10-31T03:17:38;23.25;;;12.93;;
22160;SDS011;49035;48.812;11.762;2022-10-31T03:20:19;29.15;;;13.88;;
22160;SDS011;49035;48.812;11.762;2022-10-31T03:22:51;16.13;;;12.03;;
22160;SDS011;49035;48.812;11.762;2022-10-31T03:25:19;53.10;;;14.05;;
22160;SDS011;49035;48.812;11.762;2022-10-31T03:27:45;40.47;;;14.17;;
22160;SDS011;49035;48.812;11.762;2022-10-31T03:30:11;26.60;;;12.25;;
22160;SDS011;49035;48.812;11.762;2022-10-31T03:32:43;14.70;;;11.43;;
22160;SDS011;49035;48.812;11.762;2022-10-31T03:35:14;18.53;;;12.17;;
22160;SDS011;49035;48.812;11.762;2022-10-31T03:37:42;14.70;;;11.15;;
22160;SDS011;49035;48.812;11.762;2022-10-31T03:40:08;32.00;;;13.05;;
22160;SDS011;49035;48.812;11.762;2022-10-31T03:42:40;24.00;;;13.38;;
22160;SDS011;49035;48.812;11.762;2022-10-31T03:47:39;27.92;;;13.00;;
22160;SDS011;49035;48.812;11.762;2022-10-31T03:50:07;13.30;;;10.75;;
22160;SDS011;49035;48.812;11.762;2022-10-31T03:52:45;19.73;;;12.10;;
22160;SDS011;49035;48.812;11.762;2022-10-31T03:57:58;14.40;;;11.10;;
22160;SDS011;49035;48.812;11.762;2022-10-31T04:00:32;13.82;;;11.43;;
22160;SDS011;49035;48.812;11.762;2022-10-31T04:03:01;14.87;;;10.77;;
22160;SDS011;49035;48.812;11.762;2022-10-31T04:05:29;15.32;;;11.88;;
22160;SDS011;49035;48.812;11.762;2022-10-31T04:07:56;25.80;;;12.57;;
22160;SDS011;49035;48.812;11.762;2022-10-31T04:10:24;15.90;;;11.67;;
22160;SDS011;49035;48.812;11.762;2022-10-31T04:12:53;12.48;;;10.40;;
22160;SDS011;49035;48.812;11.762;2022-10-31T04:15:27;17.77;;;12.48;;
22160;SDS011;49035;48.812;11.762;2022-10-31T04:17:54;15.45;;;11.10;;
22160;SDS011;49035;48.812;11.762;2022-10-31T04:20:29;18.80;;;12.00;;
22160;SDS011;49035;48.812;11.762;2022-10-31T04:22:56;11.05;;;9.63;;
22160;SDS011;49035;48.812;11.762;2022-10-31T04:25:22;13.00;;;10.88;;
22160;SDS011;49035;48.812;11.762;2022-10-31T04:27:47;26.63;;;14.15;;
22160;SDS011;49035;48.812;11.762;2022-10-31T04:30:13;13.40;;;10.75;;
22160;SDS011;49035;48.812;11.762;2022-10-31T04:32:39;20.70;;;12.82;;
22160;SDS011;49035;48.812;11.762;2022-10-31T04:35:04;20.30;;;12.25;;
22160;SDS011;49035;48.812;11.762;2022-10-31T04:37:30;16.15;;;11.38;;
22160;SDS011;49035;48.812;11.762;2022-10-31T04:39:56;15.93;;;11.13;;
22160;SDS011;49035;48.812;11.762;2022-10-31T04:42:21;15.45;;;11.13;;
22160;SDS011;49035;48.812;11.762;2022-10-31T04:44:47;14.10;;;10.93;;
22160;SDS011;49035;48.812;11.762;2022-10-31T04:47:12;14.05;;;11.15;;
22160;SDS011;49035;48.812;11.762;2022-10-31T04:49:38;14.63;;;11.52;;
22160;SDS011;49035;48.812;11.762;2022-10-31T04:52:03;13.80;;;10.82;;
22160;SDS011;49035;48.812;11.762;2022-10-31T04:54:29;15.88;;;11.40;;
22160;SDS011;49035;48.812;11.762;2022-10-31T04:56:55;13.48;;;11.05;;
22160;SDS011;49035;48.812;11.762;2022-10-31T04:59:20;13.27;;;10.90;;
22160;SDS011;49035;48.812;11.762;2022-10-31T05:01:46;20.13;;;12.57;;
22160;SDS011;49035;48.812;11.762;2022-10-31T05:04:11;13.23;;;10.95;;
22160;SDS011;49035;48.812;11.762;2022-10-31T05:06:37;14.95;;;11.82;;
22160;SDS011;49035;48.812;11.762;2022-10-31T05:09:02;17.13;;;11.50;;
22160;SDS011;49035;48.812;11.762;2022-10-31T05:11:28;15.73;;;11.07;;
22160;SDS011;49035;48.812;11.762;2022-10-31T05:13:54;12.23;;;10.57;;
22160;SDS011;49035;48.812;11.762;2022-10-31T05:16:19;13.57;;;10.77;;
22160;SDS011;49035;48.812;11.762;2022-10-31T05:18:45;13.38;;;10.85;;
22160;SDS011;49035;48.812;11.762;2022-10-31T05:21:10;12.40;;;10.47;;
22160;SDS011;49035;48.812;11.762;2022-10-31T05:23:36;15.45;;;11.30;;
22160;SDS011;49035;48.812;11.762;2022-10-31T05:26:02;17.33;;;10.90;;
22160;SDS011;49035;48.812;11.762;2022-10-31T05:28:27;12.73;;;10.45;;
22160;SDS011;49035;48.812;11.762;2022-10-31T05:30:53;14.65;;;11.70;;
22160;SDS011;49035;48.812;11.762;2022-10-31T05:33:18;11.60;;;10.05;;
22160;SDS011;49035;48.812;11.762;2022-10-31T05:35:44;12.97;;;10.40;;
22160;SDS011;49035;48.812;11.762;2022-10-31T05:38:09;13.45;;;10.52;;
22160;SDS011;49035;48.812;11.762;2022-10-31T05:40:35;13.40;;;10.75;;
22160;SDS011;49035;48.812;11.762;2022-10-31T05:43:00;14.38;;;11.00;;
22160;SDS011;49035;48.812;11.762;2022-10-31T05:45:26;12.07;;;10.20;;
22160;SDS011;49035;48.812;11.762;2022-10-31T05:47:56;16.30;;;10.77;;
22160;SDS011;49035;48.812;11.762;2022-10-31T05:50:26;13.43;;;10.63;;
22160;SDS011;49035;48.812;11.762;2022-10-31T05:53:03;16.13;;;10.93;;
22160;SDS011;49035;48.812;11.762;2022-10-31T05:55:30;15.48;;;10.73;;
22160;SDS011;49035;48.812;11.762;2022-10-31T05:57:56;14.02;;;10.35;;
22160;SDS011;49035;48.812;11.762;2022-10-31T06:00:23;14.80;;;11.80;;
22160;SDS011;49035;48.812;11.762;2022-10-31T06:02:57;15.45;;;11.25;;
22160;SDS011;49035;48.812;11.762;2022-10-31T06:05:23;18.35;;;12.45;;
22160;SDS011;49035;48.812;11.762;2022-10-31T06:07:49;14.98;;;11.10;;
22160;SDS011;49035;48.812;11.762;2022-10-31T06:10:14;14.88;;;11.05;;
22160;SDS011;49035;48.812;11.762;2022-10-31T06:12:40;18.48;;;12.52;;
22160;SDS011;49035;48.812;11.762;2022-10-31T06:15:06;15.27;;;11.00;;
22160;SDS011;49035;48.812;11.762;2022-10-31T06:17:34;19.40;;;11.77;;
22160;SDS011;49035;48.812;11.762;2022-10-31T06:20:00;15.60;;;10.93;;
22160;SDS011;49035;48.812;11.762;2022-10-31T06:22:26;14.35;;;10.80;;
22160;SDS011;49035;48.812;11.762;2022-10-31T06:24:51;14.32;;;11.10;;
22160;SDS011;49035;48.812;11.762;2022-10-31T06:27:17;35.22;;;12.73;;
22160;SDS011;49035;48.812;11.762;2022-10-31T06:29:43;22.90;;;11.35;;
22160;SDS011;49035;48.812;11.762;2022-10-31T06:32:11;13.95;;;10.20;;
22160;SDS011;49035;48.812;11.762;2022-10-31T06:34:37;14.00;;;10.98;;
22160;SDS011;49035;48.812;11.762;2022-10-31T06:37:05;22.08;;;11.95;;
22160;SDS011;49035;48.812;11.762;2022-10-31T06:39:31;15.40;;;11.32;;
22160;SDS011;49035;48.812;11.762;2022-10-31T06:41:57;14.75;;;10.68;;
22160;SDS011;49035;48.812;11.762;2022-10-31T06:44:22;13.18;;;10.50;;
22160;SDS011;49035;48.812;11.762;2022-10-31T06:46:49;42.85;;;28.40;;
22160;SDS011;49035;48.812;11.762;2022-10-31T06:49:15;18.70;;;13.73;;
22160;SDS011;49035;48.812;11.762;2022-10-31T06:51:40;19.63;;;11.73;;
22160;SDS011;49035;48.812;11.762;2022-10-31T06:54:06;18.60;;;12.95;;
22160;SDS011;49035;48.812;11.762;2022-10-31T06:56:32;14.32;;;10.27;;
22160;SDS011;49035;48.812;11.762;2022-10-31T06:58:57;14.70;;;10.43;;
22160;SDS011;49035;48.812;11.762;2022-10-31T07:01:23;12.75;;;9.80;;
22160;SDS011;49035;48.812;11.762;2022-10-31T07:03:48;16.35;;;10.27;;
22160;SDS011;49035;48.812;11.762;2022-10-31T07:06:14;12.00;;;10.03;;
22160;SDS011;49035;48.812;11.762;2022-10-31T07:08:39;15.15;;;10.73;;
22160;SDS011;49035;48.812;11.762;2022-10-31T07:11:05;16.15;;;10.48;;
22160;SDS011;49035;48.812;11.762;2022-10-31T07:13:31;21.40;;;9.88;;
22160;SDS011;49035;48.812;11.762;2022-10-31T07:16:00;13.30;;;9.95;;
22160;SDS011;49035;48.812;11.762;2022-10-31T07:18:27;40.33;;;10.63;;
22160;SDS011;49035;48.812;11.762;2022-10-31T07:20:53;16.63;;;10.77;;
22160;SDS011;49035;48.812;11.762;2022-10-31T07:23:19;16.85;;;10.75;;
22160;SDS011;49035;48.812;11.762;2022-10-31T07:25:44;17.55;;;10.80;;
22160;SDS011;49035;48.812;11.762;2022-10-31T07:28:10;37.42;;;11.77;;
22160;SDS011;49035;48.812;11.762;2022-10-31T07:30:36;18.00;;;11.65;;
22160;SDS011;49035;48.812;11.762;2022-10-31T07:33:03;19.30;;;11.25;;
22160;SDS011;49035;48.812;11.762;2022-10-31T07:35:29;20.77;;;12.93;;
22160;SDS011;49035;48.812;11.762;2022-10-31T07:37:55;30.48;;;11.93;;
22160;SDS011;49035;48.812;11.762;2022-10-31T07:40:22;23.63;;;11.18;;
22160;SDS011;49035;48.812;11.762;2022-10-31T07:42:48;13.68;;;10.20;;
22160;SDS011;49035;48.812;11.762;2022-10-31T07:45:16;14.10;;;11.10;;
22160;SDS011;49035;48.812;11.762;2022-10-31T07:47:50;18.13;;;9.73;;
22160;SDS011;49035;48.812;11.762;2022-10-31T07:50:18;76.53;;;12.07;;
22160;SDS011;49035;48.812;11.762;2022-10-31T07:52:45;30.02;;;10.88;;
22160;SDS011;49035;48.812;11.762;2022-10-31T07:55:11;14.45;;;9.85;;
22160;SDS011;49035;48.812;11.762;2022-10-31T07:57:37;23.13;;;11.60;;
22160;SDS011;49035;48.812;11.762;2022-10-31T08:00:04;27.05;;;11.75;;
22160;SDS011;49035;48.812;11.762;2022-10-31T08:02:31;14.48;;;10.65;;
22160;SDS011;49035;48.812;11.762;2022-10-31T08:04:56;14.15;;;10.93;;
22160;SDS011;49035;48.812;11.762;2022-10-31T08:07:22;19.83;;;10.70;;
22160;SDS011;49035;48.812;11.762;2022-10-31T08:09:48;23.40;;;12.85;;
22160;SDS011;49035;48.812;11.762;2022-10-31T08:12:13;12.43;;;10.50;;
22160;SDS011;49035;48.812;11.762;2022-10-31T08:14:39;12.45;;;10.15;;
22160;SDS011;49035;48.812;11.762;2022-10-31T08:17:04;26.55;;;12.95;;
22160;SDS011;49035;48.812;11.762;2022-10-31T08:19:30;14.88;;;12.15;;
22160;SDS011;49035;48.812;11.762;2022-10-31T08:21:56;20.60;;;10.57;;
22160;SDS011;49035;48.812;11.762;2022-10-31T08:24:21;21.67;;;9.77;;
22160;SDS011;49035;48.812;11.762;2022-10-31T08:26:47;13.95;;;9.38;;
22160;SDS011;49035;48.812;11.762;2022-10-31T08:29:13;19.60;;;10.65;;
22160;SDS011;49035;48.812;11.762;2022-10-31T08:31:39;19.55;;;10.02;;
22160;SDS011;49035;48.812;11.762;2022-10-31T08:34:06;15.10;;;9.77;;
22160;SDS011;49035;48.812;11.762;2022-10-31T08:36:32;12.32;;;8.75;;
22160;SDS011;49035;48.812;11.762;2022-10-31T08:38:57;21.35;;;8.90;;
22160;SDS011;49035;48.812;11.762;2022-10-31T08:41:23;31.38;;;8.82;;
22160;SDS011;49035;48.812;11.762;2022-10-31T08:43:49;11.35;;;8.32;;
22160;SDS011;49035;48.812;11.762;2022-10-31T08:46:15;20.35;;;9.07;;
22160;SDS011;49035;48.812;11.762;2022-10-31T08:48:41;14.50;;;8.60;;
22160;SDS011;49035;48.812;11.762;2022-10-31T08:51:06;25.25;;;9.45;;
22160;SDS011;49035;48.812;11.762;2022-10-31T08:53:33;18.48;;;8.95;;
22160;SDS011;49035;48.812;11.762;2022-10-31T08:55:58;24.23;;;9.38;;
22160;SDS011;49035;48.812;11.762;2022-10-31T08:58:24;46.83;;;10.43;;
22160;SDS011;49035;48.812;11.762;2022-10-31T09:00:51;16.20;;;9.05;;
22160;SDS011;49035;48.812;11.762;2022-10-31T09:03:21;20.20;;;9.27;;
22160;SDS011;49035;48.812;11.762;2022-10-31T09:05:55;12.45;;;9.30;;
22160;SDS011;49035;48.812;11.762;2022-10-31T09:08:21;36.47;;;9.82;;
22160;SDS011;49035;48.812;11.762;2022-10-31T09:10:47;12.80;;;8.48;;
22160;SDS011;49035;48.812;11.762;2022-10-31T09:13:14;20.42;;;8.38;;
22160;SDS011;49035;48.812;11.762;2022-10-31T09:15:42;10.95;;;7.35;;
22160;SDS011;49035;48.812;11.762;2022-10-31T09:18:10;12.75;;;8.02;;
22160;SDS011;49035;48.812;11.762;2022-10-31T09:20:36;9.65;;;7.80;;
22160;SDS011;49035;48.812;11.762;2022-10-31T09:23:03;9.25;;;7.93;;
22160;SDS011;49035;48.812;11.762;2022-10-31T09:25:50;27.00;;;7.88;;
22160;SDS011;49035;48.812;11.762;2022-10-31T09:28:18;14.63;;;7.78;;
22160;SDS011;49035;48.812;11.762;2022-10-31T09:30:46;17.70;;;8.90;;
22160;SDS011;49035;48.812;11.762;2022-10-31T09:33:13;12.48;;;7.32;;
22160;SDS011;49035;48.812;11.762;2022-10-31T09:35:39;10.73;;;7.70;;
22160;SDS011;49035;48.812;11.762;2022-10-31T09:38:07;10.25;;;7.50;;
22160;SDS011;49035;48.812;11.762;2022-10-31T09:40:36;12.30;;;8.35;;
22160;SDS011;49035;48.812;11.762;2022-10-31T09:48:37;12.15;;;8.27;;
22160;SDS011;49035;48.812;11.762;2022-10-31T09:51:12;13.35;;;8.60;;
22160;SDS011;49035;48.812;11.762;2022-10-31T09:56:39;17.23;;;9.07;;
22160;SDS011;49035;48.812;11.762;2022-10-31T09:59:10;12.68;;;9.32;;
22160;SDS011;49035;48.812;11.762;2022-10-31T10:01:48;15.70;;;9.48;;
22160;SDS011;49035;48.812;11.762;2022-10-31T10:04:48;16.42;;;9.45;;
22160;SDS011;49035;48.812;11.762;2022-10-31T10:07:17;13.85;;;10.32;;
22160;SDS011;49035;48.812;11.762;2022-10-31T10:10:18;14.32;;;9.73;;
22160;SDS011;49035;48.812;11.762;2022-10-31T10:18:32;11.50;;;9.10;;
22160;SDS011;49035;48.812;11.762;2022-10-31T10:21:06;17.63;;;11.25;;
22160;SDS011;49035;48.812;11.762;2022-10-31T10:26:45;12.13;;;8.70;;
22160;SDS011;49035;48.812;11.762;2022-10-31T10:29:29;16.98;;;9.10;;
22160;SDS011;49035;48.812;11.762;2022-10-31T10:32:05;19.75;;;10.02;;
22160;SDS011;49035;48.812;11.762;2022-10-31T10:34:40;17.25;;;11.40;;
22160;SDS011;49035;48.812;11.762;2022-10-31T10:39:49;10.55;;;8.90;;
22160;SDS011;49035;48.812;11.762;2022-10-31T10:42:18;11.85;;;9.48;;
22160;SDS011;49035;48.812;11.762;2022-10-31T10:45:14;13.48;;;9.60;;
22160;SDS011;49035;48.812;11.762;2022-10-31T10:48:46;13.05;;;9.82;;
22160;SDS011;49035;48.812;11.762;2022-10-31T10:50:56;12.50;;;8.85;;
22160;SDS011;49035;48.812;11.762;2022-10-31T10:56:34;14.50;;;11.27;;
22160;SDS011;49035;48.812;11.762;2022-10-31T10:59:00;13.90;;;10.77;;
22160;SDS011;49035;48.812;11.762;2022-10-31T11:01:27;12.20;;;10.07;;
22160;SDS011;49035;48.812;11.762;2022-10-31T11:03:53;12.93;;;10.40;;
22160;SDS011;49035;48.812;11.762;2022-10-31T11:06:19;13.10;;;10.68;;
22160;SDS011;49035;48.812;11.762;2022-10-31T11:08:50;19.75;;;11.93;;
22160;SDS011;49035;48.812;11.762;2022-10-31T11:13:43;16.98;;;11.32;;
22160;SDS011;49035;48.812;11.762;2022-10-31T11:16:12;13.40;;;11.30;;
22160;SDS011;49035;48.812;11.762;2022-10-31T11:18:51;17.00;;;12.95;;
22160;SDS011;49035;48.812;11.762;2022-10-31T11:21:29;14.52;;;11.57;;
22160;SDS011;49035;48.812;11.762;2022-10-31T11:26:36;19.13;;;12.10;;
22160;SDS011;49035;48.812;11.762;2022-10-31T11:29:03;18.95;;;13.48;;
22160;SDS011;49035;48.812;11.762;2022-10-31T11:31:30;17.83;;;13.23;;
22160;SDS011;49035;48.812;11.762;2022-10-31T11:33:59;18.63;;;13.35;;
22160;SDS011;49035;48.812;11.762;2022-10-31T11:36:31;17.70;;;13.23;;
22160;SDS011;49035;48.812;11.762;2022-10-31T11:39:00;18.20;;;13.57;;
22160;SDS011;49035;48.812;11.762;2022-10-31T11:41:29;19.60;;;13.52;;
22160;SDS011;49035;48.812;11.762;2022-10-31T11:43:58;18.63;;;13.88;;
22160;SDS011;49035;48.812;11.762;2022-10-31T11:46:33;19.58;;;14.55;;
22160;SDS011;49035;48.812;11.762;2022-10-31T11:49:02;21.67;;;15.02;;
22160;SDS011;49035;48.812;11.762;2022-10-31T11:51:31;18.33;;;13.60;;
22160;SDS011;49035;48.812;11.762;2022-10-31T11:53:58;19.73;;;14.00;;
22160;SDS011;49035;48.812;11.762;2022-10-31T11:56:27;22.80;;;15.80;;
22160;SDS011;49035;48.812;11.762;2022-10-31T11:59:03;22.00;;;15.25;;
22160;SDS011;49035;48.812;11.762;2022-10-31T12:01:31;22.17;;;14.90;;
22160;SDS011;49035;48.812;11.762;2022-10-31T12:06:36;23.05;;;15.45;;
22160;SDS011;49035;48.812;11.762;2022-10-31T12:09:18;21.13;;;15.55;;
22160;SDS011;49035;48.812;11.762;2022-10-31T12:11:59;19.80;;;14.82;;
22160;SDS011;49035;48.812;11.762;2022-10-31T12:14:48;18.88;;;15.20;;
22160;SDS011;49035;48.812;11.762;2022-10-31T12:20:02;20.90;;;15.65;;
22160;SDS011;49035;48.812;11.762;2022-10-31T12:22:36;21.63;;;15.93;;
22160;SDS011;49035;48.812;11.762;2022-10-31T12:30:46;24.05;;;16.80;;
22160;SDS011;49035;48.812;11.762;2022-10-31T12:33:29;22.58;;;16.75;;
22160;SDS011;49035;48.812;11.762;2022-10-31T12:41:51;27.15;;;17.23;;
22160;SDS011;49035;48.812;11.762;2022-10-31T12:49:42;23.17;;;17.83;;
22160;SDS011;49035;48.812;11.762;2022-10-31T12:52:20;22.00;;;16.08;;
22160;SDS011;49035;48.812;11.762;2022-10-31T12:58:04;22.60;;;18.27;;
22160;SDS011;49035;48.812;11.762;2022-10-31T13:00:37;26.60;;;17.85;;
22160;SDS011;49035;48.812;11.762;2022-10-31T13:05:59;22.92;;;16.83;;
22160;SDS011;49035;48.812;11.762;2022-10-31T13:08:34;29.13;;;17.23;;
22160;SDS011;49035;48.812;11.762;2022-10-31T13:16:34;23.42;;;17.08;;
22160;SDS011;49035;48.812;11.762;2022-10-31T13:19:15;23.13;;;17.08;;
22160;SDS011;49035;48.812;11.762;2022-10-31T13:24:33;29.40;;;17.75;;
22160;SDS011;49035;48.812;11.762;2022-10-31T13:27:14;25.50;;;17.55;;
22160;SDS011;49035;48.812;11.762;2022-10-31T13:29:51;28.83;;;17.85;;
22160;SDS011;49035;48.812;11.762;2022-10-31T13:32:35;21.52;;;16.08;;
22160;SDS011;49035;48.812;11.762;2022-10-31T13:35:23;21.23;;;16.08;;
22160;SDS011;49035;48.812;11.762;2022-10-31T13:38:14;25.67;;;17.40;;
22160;SDS011;49035;48.812;11.762;2022-10-31T13:41:20;26.80;;;17.13;;
22160;SDS011;49035;48.812;11.762;2022-10-31T13:48:58;20.33;;;16.10;;
22160;SDS011;49035;48.812;11.762;2022-10-31T13:51:30;21.23;;;15.15;;
22160;SDS011;49035;48.812;11.762;2022-10-31T13:54:20;24.42;;;16.27;;
22160;SDS011;49035;48.812;11.762;2022-10-31T13:56:58;21.80;;;15.00;;
22160;SDS011;49035;48.812;11.762;2022-10-31T13:59:25;21.10;;;14.50;;
22160;SDS011;49035;48.812;11.762;2022-10-31T14:01:56;20.90;;;14.80;;
22160;SDS011;49035;48.812;11.762;2022-10-31T14:09:35;18.20;;;13.60;;
22160;SDS011;49035;48.812;11.762;2022-10-31T14:12:19;18.60;;;12.90;;
22160;SDS011;49035;48.812;11.762;2022-10-31T14:18:06;18.33;;;12.93;;
22160;SDS011;49035;48.812;11.762;2022-10-31T14:20:57;14.77;;;12.10;;
22160;SDS011;49035;48.812;11.762;2022-10-31T14:35:23;23.75;;;13.98;;
22160;SDS011;49035;48.812;11.762;2022-10-31T14:44:51;21.67;;;14.95;;
22160;SDS011;49035;48.812;11.762;2022-10-31T14:54:11;23.55;;;16.02;;
22160;SDS011;49035;48.812;11.762;2022-10-31T14:56:56;18.63;;;14.05;;
22160;SDS011;49035;48.812;11.762;2022-10-31T14:59:37;19.02;;;13.98;;
22160;SDS011;49035;48.812;11.762;2022-10-31T15:02:15;25.30;;;17.08;;
22160;SDS011;49035;48.812;11.762;2022-10-31T15:04:56;27.67;;;17.65;;
22160;SDS011;49035;48.812;11.762;2022-10-31T15:07:31;23.38;;;17.33;;
22160;SDS011;49035;48.812;11.762;2022-10-31T15:10:15;23.38;;;18.40;;
22160;SDS011;49035;48.812;11.762;2022-10-31T15:13:19;25.60;;;17.77;;
22160;SDS011;49035;48.812;11.762;2022-10-31T15:15:52;24.67;;;16.80;;
22160;SDS011;49035;48.812;11.762;2022-10-31T15:18:24;34.92;;;21.88;;
22160;SDS011;49035;48.812;11.762;2022-10-31T15:20:55;27.35;;;19.85;;
22160;SDS011;49035;48.812;11.762;2022-10-31T15:23:27;25.50;;;18.90;;
22160;SDS011;49035;48.812;11.762;2022-10-31T15:26:06;23.52;;;17.08;;
22160;SDS011;49035;48.812;11.762;2022-10-31T15:29:00;21.95;;;15.80;;
22160;SDS011;49035;48.812;11.762;2022-10-31T15:31:36;25.20;;;18.20;;
22160;SDS011;49035;48.812;11.762;2022-10-31T15:37:13;22.85;;;16.70;;
22160;SDS011;49035;48.812;11.762;2022-10-31T15:39:40;25.70;;;17.58;;
22160;SDS011;49035;48.812;11.762;2022-10-31T15:42:40;27.65;;;18.15;;
22160;SDS011;49035;48.812;11.762;2022-10-31T15:47:37;50.65;;;39.50;;
22160;SDS011;49035;48.812;11.762;2022-10-31T15:50:23;35.00;;;27.40;;
22160;SDS011;49035;48.812;11.762;2022-10-31T15:53:00;52.28;;;40.00;;
22160;SDS011;49035;48.812;11.762;2022-10-31T15:55:28;75.85;;;60.00;;
22160;SDS011;49035;48.812;11.762;2022-10-31T15:57:58;110.45;;;88.47;;
22160;SDS011;49035;48.812;11.762;2022-10-31T16:00:28;93.35;;;76.13;;
22160;SDS011;49035;48.812;11.762;2022-10-31T16:05:37;35.97;;;26.77;;
22160;SDS011;49035;48.812;11.762;2022-10-31T16:10:58;37.00;;;23.02;;
22160;SDS011;49035;48.812;11.762;2022-10-31T16:13:41;36.60;;;24.02;;
22160;SDS011;49035;48.812;11.762;2022-10-31T16:16:21;35.42;;;23.90;;
22160;SDS011;49035;48.812;11.762;2022-10-31T16:18:48;39.60;;;25.02;;
22160;SDS011;49035;48.812;11.762;2022-10-31T16:21:16;40.60;;;26.75;;
22160;SDS011;49035;48.812;11.762;2022-10-31T16:23:50;43.42;;;27.48;;
22160;SDS011;49035;48.812;11.762;2022-10-31T16:26:19;38.33;;;25.90;;
22160;SDS011;49035;48.812;11.762;2022-10-31T16:28:52;40.80;;;26.35;;
22160;SDS011;49035;48.812;11.762;2022-10-31T16:31:30;35.95;;;24.95;;
22160;SDS011;49035;48.812;11.762;2022-10-31T16:34:03;41.95;;;25.80;;
22160;SDS011;49035;48.812;11.762;2022-10-31T16:36:39;37.05;;;24.17;;
22160;SDS011;49035;48.812;11.762;2022-10-31T16:39:06;36.95;;;24.52;;
22160;SDS011;49035;48.812;11.762;2022-10-31T16:41:37;34.28;;;23.83;;
22160;SDS011;49035;48.812;11.762;2022-10-31T16:44:06;41.45;;;23.05;;
22160;SDS011;49035;48.812;11.762;2022-10-31T16:46:42;32.80;;;21.95;;
22160;SDS011;49035;48.812;11.762;2022-10-31T16:49:11;29.08;;;20.42;;
22160;SDS011;49035;48.812;11.762;2022-10-31T16:51:36;32.60;;;21.98;;